Red Deer Regional Airport
CYQF : now visible

Airfield :











YOU CAN JOIN US ON...

 
LOGIN :

Register | Disclaimer

   EN    FR    IT 

 









Legend :    VFR   Marginal VFR   IFR   Intensive IFR   Very Intensive IFR
Visi :
Ceiling :
>= 8 km
>= 3000ft
5 to 8 km
1000 to 3000 ft
1500m to 5 km
500 to 1000 ft
800 to 1500m
200 to 500 ft
< 800m
< 200 ft
Symbols :   Thunderstorms  Fog  Heavy snow  Heavy precipitations  Wind > 20 kt






- Airport Elevation : 2968 ft
- IATA code : YQF


CYQF - Red Deer Regional

CURRENT METAR :
  • 192200Z 34003KT 2SM -SN BR FEW004 VV030 00/M00 A2988 RMK SF2SN6 SLP161

EXPIRED METARs :
  • 192146Z 34002KT 2SM -SN BR VV035 00/M01 A2987 RMK SN8 VIS VRB 1-3 SLP159
  • 192115Z 36003KT 3SM -SN BR SCT004 OVC050 00/M00 A2987 RMK SF4SC4 VIS VRB 2-4 SLP157
  • 192100Z 35003KT 2 1/2SM -SN BR BKN004 OVC030 00/M01 A2986 RMK SF5SC3 SLP155
  • 192036Z 36002KT 1 1/4SM -SN BR SCT004 OVC028 00/M01 A2985 RMK SN2SF2ST4 SLP153
  • 192000Z 34004KT 1 3/4SM -SN BR SCT008 OVC037 M00/M01 A2984 RMK SN2SF2ST4 SLP150

TAF AMD TAF CYQF
Valid from the 19 at 19:00 until the 20 at 06:00 UTC


191936Z 1919/2006 01005KT 1SM -SN BR VV004
TEMPO 1919/2003 3SM -SN OVC025
FM200300 34005KT 6SM -SN SCT012 OVC030
TEMPO 2003/2006 2SM -SN OVC012 RMK NXT FCST BY 200000Z



MET'MAP, your aeronautical weather chart ! - Copyright ORBIFLY December 2007 - Disclaimer

ORBIFLY MET'MAP TEAM :

Programming & Development : Alexandra Zaïnal
Concept & Development : Baudouin d'Aumeries
Co-Development & Prog : Marc-Olivier Méhu
Technical & hardware support : Manuel Goepfert

Contact : metmap@orbifly.com




SOURCES & CREDITS :

   NOAA       Earth
Advisory